sensor_id;sensor_type;location;lat;lon;timestamp;temperature;humidity
39695;DHT22;25367;-35.352;149.036;2023-09-19T00:00:38;23.70;50.60
39695;DHT22;25367;-35.352;149.036;2023-09-19T00:03:08;23.80;50.50
39695;DHT22;25367;-35.352;149.036;2023-09-19T00:05:38;23.80;50.50
39695;DHT22;25367;-35.352;149.036;2023-09-19T00:08:08;23.80;50.60
39695;DHT22;25367;-35.352;149.036;2023-09-19T00:10:39;23.90;50.70
39695;DHT22;25367;-35.352;149.036;2023-09-19T00:13:09;23.90;50.80
39695;DHT22;25367;-35.352;149.036;2023-09-19T00:15:40;23.90;50.80
39695;DHT22;25367;-35.352;149.036;2023-09-19T00:18:10;24.00;50.70
39695;DHT22;25367;-35.352;149.036;2023-09-19T00:20:40;24.00;51.00
39695;DHT22;25367;-35.352;149.036;2023-09-19T00:23:09;24.00;50.70
39695;DHT22;25367;-35.352;149.036;2023-09-19T00:25:42;24.00;50.70
39695;DHT22;25367;-35.352;149.036;2023-09-19T00:28:12;24.10;50.60
39695;DHT22;25367;-35.352;149.036;2023-09-19T00:30:43;24.10;50.70
39695;DHT22;25367;-35.352;149.036;2023-09-19T00:33:13;24.10;50.60
39695;DHT22;25367;-35.352;149.036;2023-09-19T00:35:48;24.10;50.50
39695;DHT22;25367;-35.352;149.036;2023-09-19T00:38:17;24.20;50.60
39695;DHT22;25367;-35.352;149.036;2023-09-19T00:40:50;24.20;50.50
39695;DHT22;25367;-35.352;149.036;2023-09-19T00:43:20;24.20;50.50
39695;DHT22;25367;-35.352;149.036;2023-09-19T00:45:51;24.30;50.60
39695;DHT22;25367;-35.352;149.036;2023-09-19T00:48:21;24.30;50.50
39695;DHT22;25367;-35.352;149.036;2023-09-19T00:50:52;24.30;50.50
39695;DHT22;25367;-35.352;149.036;2023-09-19T00:53:22;24.30;50.40
39695;DHT22;25367;-35.352;149.036;2023-09-19T00:55:56;24.40;50.40
39695;DHT22;25367;-35.352;149.036;2023-09-19T00:58:26;24.40;50.30
39695;DHT22;25367;-35.352;149.036;2023-09-19T01:00:56;24.40;50.90
39695;DHT22;25367;-35.352;149.036;2023-09-19T01:03:26;24.40;50.30
39695;DHT22;25367;-35.352;149.036;2023-09-19T01:05:55;24.50;50.30
39695;DHT22;25367;-35.352;149.036;2023-09-19T01:08:25;24.50;50.30
39695;DHT22;25367;-35.352;149.036;2023-09-19T01:10:59;24.50;50.20
39695;DHT22;25367;-35.352;149.036;2023-09-19T01:13:35;24.60;50.20
39695;DHT22;25367;-35.352;149.036;2023-09-19T01:16:28;24.60;50.20
39695;DHT22;25367;-35.352;149.036;2023-09-19T01:19:23;24.60;50.20
39695;DHT22;25367;-35.352;149.036;2023-09-19T01:22:05;24.60;50.10
39695;DHT22;25367;-35.352;149.036;2023-09-19T01:25:09;24.60;50.10
39695;DHT22;25367;-35.352;149.036;2023-09-19T01:28:08;24.70;50.10
39695;DHT22;25367;-35.352;149.036;2023-09-19T01:30:48;24.70;50.10
39695;DHT22;25367;-35.352;149.036;2023-09-19T01:33:21;24.70;50.20
39695;DHT22;25367;-35.352;149.036;2023-09-19T01:35:52;24.70;50.00
39695;DHT22;25367;-35.352;149.036;2023-09-19T01:38:21;24.70;49.90
39695;DHT22;25367;-35.352;149.036;2023-09-19T01:41:00;24.80;49.90
39695;DHT22;25367;-35.352;149.036;2023-09-19T01:43:37;24.80;49.70
39695;DHT22;25367;-35.352;149.036;2023-09-19T01:46:15;24.80;49.80
39695;DHT22;25367;-35.352;149.036;2023-09-19T01:48:48;24.80;49.70
39695;DHT22;25367;-35.352;149.036;2023-09-19T01:51:23;24.80;49.70
39695;DHT22;25367;-35.352;149.036;2023-09-19T01:53:59;24.90;49.80
39695;DHT22;25367;-35.352;149.036;2023-09-19T01:56:40;24.80;49.80
39695;DHT22;25367;-35.352;149.036;2023-09-19T01:59:15;24.90;49.90
39695;DHT22;25367;-35.352;149.036;2023-09-19T02:01:49;24.90;49.90
39695;DHT22;25367;-35.352;149.036;2023-09-19T02:04:19;24.90;49.70
39695;DHT22;25367;-35.352;149.036;2023-09-19T02:06:49;24.90;49.70
39695;DHT22;25367;-35.352;149.036;2023-09-19T02:09:18;25.00;49.70
39695;DHT22;25367;-35.352;149.036;2023-09-19T02:11:48;25.00;49.50
39695;DHT22;25367;-35.352;149.036;2023-09-19T02:14:17;25.00;50.00
39695;DHT22;25367;-35.352;149.036;2023-09-19T02:16:49;25.00;49.30
39695;DHT22;25367;-35.352;149.036;2023-09-19T02:19:18;25.00;49.30
39695;DHT22;25367;-35.352;149.036;2023-09-19T02:21:48;25.00;49.30
39695;DHT22;25367;-35.352;149.036;2023-09-19T02:24:17;25.00;49.30
39695;DHT22;25367;-35.352;149.036;2023-09-19T02:26:47;25.00;49.30
39695;DHT22;25367;-35.352;149.036;2023-09-19T02:29:16;25.00;49.40
39695;DHT22;25367;-35.352;149.036;2023-09-19T02:31:47;25.00;49.40
39695;DHT22;25367;-35.352;149.036;2023-09-19T02:34:18;25.10;49.50
39695;DHT22;25367;-35.352;149.036;2023-09-19T02:36:47;25.00;49.40
39695;DHT22;25367;-35.352;149.036;2023-09-19T02:39:16;25.10;49.30
39695;DHT22;25367;-35.352;149.036;2023-09-19T02:41:46;25.10;49.30
39695;DHT22;25367;-35.352;149.036;2023-09-19T02:44:16;25.10;49.20
39695;DHT22;25367;-35.352;149.036;2023-09-19T02:46:47;25.10;49.20
39695;DHT22;25367;-35.352;149.036;2023-09-19T02:49:17;25.10;49.10
39695;DHT22;25367;-35.352;149.036;2023-09-19T02:51:46;25.20;49.20
39695;DHT22;25367;-35.352;149.036;2023-09-19T02:54:16;25.10;49.10
39695;DHT22;25367;-35.352;149.036;2023-09-19T02:56:46;25.10;49.00
39695;DHT22;25367;-35.352;149.036;2023-09-19T02:59:15;25.20;49.60
39695;DHT22;25367;-35.352;149.036;2023-09-19T03:01:45;25.20;49.00
39695;DHT22;25367;-35.352;149.036;2023-09-19T03:04:16;25.30;48.90
39695;DHT22;25367;-35.352;149.036;2023-09-19T03:06:46;25.30;48.90
39695;DHT22;25367;-35.352;149.036;2023-09-19T03:09:16;25.30;48.80
39695;DHT22;25367;-35.352;149.036;2023-09-19T03:11:46;25.30;48.80
39695;DHT22;25367;-35.352;149.036;2023-09-19T03:14:15;25.30;48.70
39695;DHT22;25367;-35.352;149.036;2023-09-19T03:16:45;25.30;48.60
39695;DHT22;25367;-35.352;149.036;2023-09-19T03:19:18;25.30;48.60
39695;DHT22;25367;-35.352;149.036;2023-09-19T03:21:48;25.30;48.50
39695;DHT22;25367;-35.352;149.036;2023-09-19T03:24:18;25.30;48.40
39695;DHT22;25367;-35.352;149.036;2023-09-19T03:26:48;25.30;48.40
39695;DHT22;25367;-35.352;149.036;2023-09-19T03:29:18;25.30;48.30
39695;DHT22;25367;-35.352;149.036;2023-09-19T03:31:48;25.30;48.40
39695;DHT22;25367;-35.352;149.036;2023-09-19T03:34:20;25.30;48.30
39695;DHT22;25367;-35.352;149.036;2023-09-19T03:36:49;25.30;48.30
39695;DHT22;25367;-35.352;149.036;2023-09-19T03:39:19;25.30;48.30
39695;DHT22;25367;-35.352;149.036;2023-09-19T03:41:49;25.30;48.30
39695;DHT22;25367;-35.352;149.036;2023-09-19T03:44:18;25.30;48.30
39695;DHT22;25367;-35.352;149.036;2023-09-19T03:46:48;25.30;48.20
39695;DHT22;25367;-35.352;149.036;2023-09-19T03:49:19;25.40;48.40
39695;DHT22;25367;-35.352;149.036;2023-09-19T03:51:49;25.40;48.40
39695;DHT22;25367;-35.352;149.036;2023-09-19T03:54:19;25.40;48.30
39695;DHT22;25367;-35.352;149.036;2023-09-19T03:56:48;25.40;48.30
39695;DHT22;25367;-35.352;149.036;2023-09-19T03:59:18;25.40;48.30
39695;DHT22;25367;-35.352;149.036;2023-09-19T04:01:47;25.40;48.30
39695;DHT22;25367;-35.352;149.036;2023-09-19T04:04:19;25.40;48.30
39695;DHT22;25367;-35.352;149.036;2023-09-19T04:06:48;25.40;48.30
39695;DHT22;25367;-35.352;149.036;2023-09-19T04:09:18;25.40;48.20
39695;DHT22;25367;-35.352;149.036;2023-09-19T04:11:47;25.40;48.30
39695;DHT22;25367;-35.352;149.036;2023-09-19T04:14:17;25.40;48.50
39695;DHT22;25367;-35.352;149.036;2023-09-19T04:16:46;25.40;48.90
39695;DHT22;25367;-35.352;149.036;2023-09-19T04:19:16;25.40;49.00
39695;DHT22;25367;-35.352;149.036;2023-09-19T04:21:47;25.40;49.20
39695;DHT22;25367;-35.352;149.036;2023-09-19T04:24:17;25.50;49.30
39695;DHT22;25367;-35.352;149.036;2023-09-19T04:26:46;25.50;49.30
39695;DHT22;25367;-35.352;149.036;2023-09-19T04:29:16;25.50;49.20
39695;DHT22;25367;-35.352;149.036;2023-09-19T04:31:45;25.50;49.10
39695;DHT22;25367;-35.352;149.036;2023-09-19T04:34:15;25.50;49.10
39695;DHT22;25367;-35.352;149.036;2023-09-19T04:36:47;25.50;49.10
39695;DHT22;25367;-35.352;149.036;2023-09-19T04:39:17;25.50;49.00
39695;DHT22;25367;-35.352;149.036;2023-09-19T04:41:46;25.50;49.00
39695;DHT22;25367;-35.352;149.036;2023-09-19T04:44:16;25.50;49.00
39695;DHT22;25367;-35.352;149.036;2023-09-19T04:46:46;25.50;48.90
39695;DHT22;25367;-35.352;149.036;2023-09-19T04:49:15;25.60;49.00
39695;DHT22;25367;-35.352;149.036;2023-09-19T04:51:47;25.60;49.00
39695;DHT22;25367;-35.352;149.036;2023-09-19T04:54:17;25.60;48.90
39695;DHT22;25367;-35.352;149.036;2023-09-19T04:56:47;25.60;48.90
39695;DHT22;25367;-35.352;149.036;2023-09-19T04:59:16;25.60;48.80
39695;DHT22;25367;-35.352;149.036;2023-09-19T05:01:45;25.70;48.80
39695;DHT22;25367;-35.352;149.036;2023-09-19T05:04:15;25.70;48.90
39695;DHT22;25367;-35.352;149.036;2023-09-19T05:06:46;25.70;48.80
39695;DHT22;25367;-35.352;149.036;2023-09-19T05:09:16;25.70;48.90
39695;DHT22;25367;-35.352;149.036;2023-09-19T05:11:46;25.70;48.80
39695;DHT22;25367;-35.352;149.036;2023-09-19T05:14:15;25.70;48.70
39695;DHT22;25367;-35.352;149.036;2023-09-19T05:16:45;25.80;48.60
39695;DHT22;25367;-35.352;149.036;2023-09-19T05:19:15;25.80;48.60
39695;DHT22;25367;-35.352;149.036;2023-09-19T05:21:44;25.80;48.40
39695;DHT22;25367;-35.352;149.036;2023-09-19T05:24:16;25.80;48.40
39695;DHT22;25367;-35.352;149.036;2023-09-19T05:26:45;25.90;48.50
39695;DHT22;25367;-35.352;149.036;2023-09-19T05:29:15;25.90;48.40
39695;DHT22;25367;-35.352;149.036;2023-09-19T05:31:45;25.80;48.50
39695;DHT22;25367;-35.352;149.036;2023-09-19T05:34:15;25.90;48.60
39695;DHT22;25367;-35.352;149.036;2023-09-19T05:36:44;25.90;48.60
39695;DHT22;25367;-35.352;149.036;2023-09-19T05:39:17;25.90;48.70
39695;DHT22;25367;-35.352;149.036;2023-09-19T05:41:47;26.00;48.70
39695;DHT22;25367;-35.352;149.036;2023-09-19T05:44:16;26.00;49.30
39695;DHT22;25367;-35.352;149.036;2023-09-19T05:46:46;26.00;48.90
39695;DHT22;25367;-35.352;149.036;2023-09-19T05:49:16;26.00;48.60
39695;DHT22;25367;-35.352;149.036;2023-09-19T05:51:45;26.00;48.60
39695;DHT22;25367;-35.352;149.036;2023-09-19T05:54:18;26.00;48.60
39695;DHT22;25367;-35.352;149.036;2023-09-19T05:56:46;26.00;48.50
39695;DHT22;25367;-35.352;149.036;2023-09-19T05:59:16;26.00;48.60
39695;DHT22;25367;-35.352;149.036;2023-09-19T06:01:45;25.90;48.70
39695;DHT22;25367;-35.352;149.036;2023-09-19T06:04:15;26.00;48.70
39695;DHT22;25367;-35.352;149.036;2023-09-19T06:06:44;26.00;48.50
39695;DHT22;25367;-35.352;149.036;2023-09-19T06:09:17;26.10;48.60
39695;DHT22;25367;-35.352;149.036;2023-09-19T06:11:46;26.10;48.40
39695;DHT22;25367;-35.352;149.036;2023-09-19T06:14:15;26.10;48.50
39695;DHT22;25367;-35.352;149.036;2023-09-19T06:16:45;26.10;48.30
39695;DHT22;25367;-35.352;149.036;2023-09-19T06:19:14;26.10;48.00
39695;DHT22;25367;-35.352;149.036;2023-09-19T06:21:44;26.10;48.10
39695;DHT22;25367;-35.352;149.036;2023-09-19T06:24:13;26.10;48.00
39695;DHT22;25367;-35.352;149.036;2023-09-19T06:26:45;26.20;48.10
39695;DHT22;25367;-35.352;149.036;2023-09-19T06:29:14;26.10;48.00
39695;DHT22;25367;-35.352;149.036;2023-09-19T06:31:43;26.10;48.00
39695;DHT22;25367;-35.352;149.036;2023-09-19T06:34:13;26.20;47.80
39695;DHT22;25367;-35.352;149.036;2023-09-19T06:36:42;26.20;47.90
39695;DHT22;25367;-35.352;149.036;2023-09-19T06:39:12;26.20;47.80
39695;DHT22;25367;-35.352;149.036;2023-09-19T06:41:44;26.20;47.80
39695;DHT22;25367;-35.352;149.036;2023-09-19T06:44:13;26.20;47.80
39695;DHT22;25367;-35.352;149.036;2023-09-19T06:46:42;26.20;47.70
39695;DHT22;25367;-35.352;149.036;2023-09-19T06:49:12;26.20;47.70
39695;DHT22;25367;-35.352;149.036;2023-09-19T06:51:42;26.20;47.70
39695;DHT22;25367;-35.352;149.036;2023-09-19T06:54:11;26.30;47.60
39695;DHT22;25367;-35.352;149.036;2023-09-19T06:56:41;26.30;47.60
39695;DHT22;25367;-35.352;149.036;2023-09-19T06:59:12;26.30;47.70
39695;DHT22;25367;-35.352;149.036;2023-09-19T07:01:42;26.30;47.50
39695;DHT22;25367;-35.352;149.036;2023-09-19T07:04:11;26.30;47.60
39695;DHT22;25367;-35.352;149.036;2023-09-19T07:06:41;26.30;47.60
39695;DHT22;25367;-35.352;149.036;2023-09-19T07:09:10;26.30;47.60
39695;DHT22;25367;-35.352;149.036;2023-09-19T07:11:40;26.30;47.50
39695;DHT22;25367;-35.352;149.036;2023-09-19T07:14:12;26.30;47.50
39695;DHT22;25367;-35.352;149.036;2023-09-19T07:16:41;26.30;47.60
39695;DHT22;25367;-35.352;149.036;2023-09-19T07:19:11;26.30;47.50
39695;DHT22;25367;-35.352;149.036;2023-09-19T07:21:40;26.30;47.50
39695;DHT22;25367;-35.352;149.036;2023-09-19T07:24:10;26.30;47.40
39695;DHT22;25367;-35.352;149.036;2023-09-19T07:26:39;26.30;47.20
39695;DHT22;25367;-35.352;149.036;2023-09-19T07:29:11;26.30;47.20
39695;DHT22;25367;-35.352;149.036;2023-09-19T07:31:40;26.30;47.90
39695;DHT22;25367;-35.352;149.036;2023-09-19T07:34:10;26.30;47.30
39695;DHT22;25367;-35.352;149.036;2023-09-19T07:36:39;26.30;47.20
39695;DHT22;25367;-35.352;149.036;2023-09-19T07:39:08;26.30;47.20
39695;DHT22;25367;-35.352;149.036;2023-09-19T07:41:38;26.20;47.10
39695;DHT22;25367;-35.352;149.036;2023-09-19T07:44:07;26.30;47.10
39695;DHT22;25367;-35.352;149.036;2023-09-19T07:46:39;26.30;47.10
39695;DHT22;25367;-35.352;149.036;2023-09-19T07:49:08;26.20;47.10
39695;DHT22;25367;-35.352;149.036;2023-09-19T07:51:38;26.20;47.10
39695;DHT22;25367;-35.352;149.036;2023-09-19T07:54:07;26.20;47.20
39695;DHT22;25367;-35.352;149.036;2023-09-19T07:56:37;26.20;47.20
39695;DHT22;25367;-35.352;149.036;2023-09-19T07:59:06;26.10;47.20
39695;DHT22;25367;-35.352;149.036;2023-09-19T08:01:38;26.20;47.30
39695;DHT22;25367;-35.352;149.036;2023-09-19T08:04:08;26.20;47.30
39695;DHT22;25367;-35.352;149.036;2023-09-19T08:06:38;26.20;47.40
39695;DHT22;25367;-35.352;149.036;2023-09-19T08:09:07;26.10;47.20
39695;DHT22;25367;-35.352;149.036;2023-09-19T08:11:36;26.10;47.20
39695;DHT22;25367;-35.352;149.036;2023-09-19T08:14:06;26.20;46.10
39695;DHT22;25367;-35.352;149.036;2023-09-19T08:16:38;26.10;45.80
39695;DHT22;25367;-35.352;149.036;2023-09-19T08:19:08;26.10;45.30
39695;DHT22;25367;-35.352;149.036;2023-09-19T08:21:38;26.10;44.60
39695;DHT22;25367;-35.352;149.036;2023-09-19T08:24:08;26.10;44.00
39695;DHT22;25367;-35.352;149.036;2023-09-19T08:26:37;26.10;44.00
39695;DHT22;25367;-35.352;149.036;2023-09-19T08:29:07;26.00;43.70
39695;DHT22;25367;-35.352;149.036;2023-09-19T08:31:39;26.00;43.60
39695;DHT22;25367;-35.352;149.036;2023-09-19T08:34:08;26.00;43.60
39695;DHT22;25367;-35.352;149.036;2023-09-19T08:36:38;26.00;43.60
39695;DHT22;25367;-35.352;149.036;2023-09-19T08:39:07;25.90;43.30
39695;DHT22;25367;-35.352;149.036;2023-09-19T08:41:37;25.90;43.30
39695;DHT22;25367;-35.352;149.036;2023-09-19T08:44:06;25.90;43.00
39695;DHT22;25367;-35.352;149.036;2023-09-19T08:46:40;25.80;43.10
39695;DHT22;25367;-35.352;149.036;2023-09-19T08:49:17;25.80;43.20
39695;DHT22;25367;-35.352;149.036;2023-09-19T08:51:53;25.80;43.40
39695;DHT22;25367;-35.352;149.036;2023-09-19T08:54:25;25.80;43.60
39695;DHT22;25367;-35.352;149.036;2023-09-19T08:56:57;25.80;43.60
39695;DHT22;25367;-35.352;149.036;2023-09-19T08:59:28;25.80;43.50
39695;DHT22;25367;-35.352;149.036;2023-09-19T09:02:02;25.80;43.30
39695;DHT22;25367;-35.352;149.036;2023-09-19T09:04:32;25.80;43.60
39695;DHT22;25367;-35.352;149.036;2023-09-19T09:07:03;25.80;43.60
39695;DHT22;25367;-35.352;149.036;2023-09-19T09:09:33;25.80;43.70
39695;DHT22;25367;-35.352;149.036;2023-09-19T09:12:04;25.80;43.40
39695;DHT22;25367;-35.352;149.036;2023-09-19T09:14:34;25.80;43.50
39695;DHT22;25367;-35.352;149.036;2023-09-19T09:17:05;25.80;43.60
39695;DHT22;25367;-35.352;149.036;2023-09-19T09:19:35;25.80;43.80
39695;DHT22;25367;-35.352;149.036;2023-09-19T09:22:08;25.80;43.60
39695;DHT22;25367;-35.352;149.036;2023-09-19T09:24:51;25.70;43.30
39695;DHT22;25367;-35.352;149.036;2023-09-19T09:27:21;25.70;43.20
39695;DHT22;25367;-35.352;149.036;2023-09-19T09:29:52;25.60;43.10
39695;DHT22;25367;-35.352;149.036;2023-09-19T09:32:24;25.70;43.00
39695;DHT22;25367;-35.352;149.036;2023-09-19T09:34:54;25.60;42.80
39695;DHT22;25367;-35.352;149.036;2023-09-19T09:37:25;25.60;42.90
39695;DHT22;25367;-35.352;149.036;2023-09-19T09:39:55;25.60;42.70
39695;DHT22;25367;-35.352;149.036;2023-09-19T09:42:32;25.60;42.50
39695;DHT22;25367;-35.352;149.036;2023-09-19T09:45:17;25.60;42.80
39695;DHT22;25367;-35.352;149.036;2023-09-19T09:47:50;25.60;43.00
39695;DHT22;25367;-35.352;149.036;2023-09-19T09:50:29;25.50;42.50
39695;DHT22;25367;-35.352;149.036;2023-09-19T09:52:58;25.60;42.80
39695;DHT22;25367;-35.352;149.036;2023-09-19T09:55:28;25.50;42.40
39695;DHT22;25367;-35.352;149.036;2023-09-19T09:58:17;25.50;42.40
39695;DHT22;25367;-35.352;149.036;2023-09-19T10:00:57;25.50;42.70
39695;DHT22;25367;-35.352;149.036;2023-09-19T10:03:37;25.50;42.90
39695;DHT22;25367;-35.352;149.036;2023-09-19T10:06:12;25.50;42.20
39695;DHT22;25367;-35.352;149.036;2023-09-19T10:08:59;25.40;41.60
39695;DHT22;25367;-35.352;149.036;2023-09-19T10:11:29;25.40;42.00
39695;DHT22;25367;-35.352;149.036;2023-09-19T10:14:00;25.40;41.10
39695;DHT22;25367;-35.352;149.036;2023-09-19T10:16:32;25.40;40.70
39695;DHT22;25367;-35.352;149.036;2023-09-19T10:19:08;25.30;40.40
39695;DHT22;25367;-35.352;149.036;2023-09-19T10:21:39;25.40;40.70
39695;DHT22;25367;-35.352;149.036;2023-09-19T10:24:10;25.30;40.30
39695;DHT22;25367;-35.352;149.036;2023-09-19T10:26:40;25.20;40.00
39695;DHT22;25367;-35.352;149.036;2023-09-19T10:29:11;25.20;40.00
39695;DHT22;25367;-35.352;149.036;2023-09-19T10:31:43;25.20;39.90
39695;DHT22;25367;-35.352;149.036;2023-09-19T10:34:17;25.20;39.50
39695;DHT22;25367;-35.352;149.036;2023-09-19T10:36:48;25.20;39.70
39695;DHT22;25367;-35.352;149.036;2023-09-19T10:39:18;25.10;39.30
39695;DHT22;25367;-35.352;149.036;2023-09-19T10:41:53;25.10;39.10
39695;DHT22;25367;-35.352;149.036;2023-09-19T10:44:25;25.10;39.40
39695;DHT22;25367;-35.352;149.036;2023-09-19T10:46:56;25.00;39.10
39695;DHT22;25367;-35.352;149.036;2023-09-19T10:49:29;25.10;39.10
39695;DHT22;25367;-35.352;149.036;2023-09-19T10:52:01;25.00;38.80
39695;DHT22;25367;-35.352;149.036;2023-09-19T10:54:33;25.00;38.90
39695;DHT22;25367;-35.352;149.036;2023-09-19T10:57:05;24.90;38.60
39695;DHT22;25367;-35.352;149.036;2023-09-19T10:59:35;25.00;38.80
39695;DHT22;25367;-35.352;149.036;2023-09-19T11:02:18;25.00;38.40
39695;DHT22;25367;-35.352;149.036;2023-09-19T11:04:51;24.90;39.20
39695;DHT22;25367;-35.352;149.036;2023-09-19T11:07:22;24.90;38.20
39695;DHT22;25367;-35.352;149.036;2023-09-19T11:09:53;24.80;37.90
39695;DHT22;25367;-35.352;149.036;2023-09-19T11:12:53;24.80;37.90
39695;DHT22;25367;-35.352;149.036;2023-09-19T11:16:03;24.80;39.30
39695;DHT22;25367;-35.352;149.036;2023-09-19T11:18:54;24.80;39.10
39695;DHT22;25367;-35.352;149.036;2023-09-19T11:21:52;24.70;38.80
39695;DHT22;25367;-35.352;149.036;2023-09-19T11:24:35;24.70;38.60
39695;DHT22;25367;-35.352;149.036;2023-09-19T11:27:13;24.70;38.30
39695;DHT22;25367;-35.352;149.036;2023-09-19T11:29:43;24.70;38.00
39695;DHT22;25367;-35.352;149.036;2023-09-19T11:32:14;24.60;37.20
39695;DHT22;25367;-35.352;149.036;2023-09-19T11:34:46;24.60;37.10
39695;DHT22;25367;-35.352;149.036;2023-09-19T11:40:32;24.60;38.20
39695;DHT22;25367;-35.352;149.036;2023-09-19T11:43:29;24.60;37.00
39695;DHT22;25367;-35.352;149.036;2023-09-19T11:46:06;24.60;38.10
39695;DHT22;25367;-35.352;149.036;2023-09-19T11:48:45;24.60;37.50
39695;DHT22;25367;-35.352;149.036;2023-09-19T11:51:18;24.60;37.50
39695;DHT22;25367;-35.352;149.036;2023-09-19T11:53:48;24.50;36.90
39695;DHT22;25367;-35.352;149.036;2023-09-19T11:56:22;24.50;37.50
39695;DHT22;25367;-35.352;149.036;2023-09-19T11:58:53;24.50;36.90
39695;DHT22;25367;-35.352;149.036;2023-09-19T12:01:29;24.50;36.50
39695;DHT22;25367;-35.352;149.036;2023-09-19T12:04:00;24.40;36.50
39695;DHT22;25367;-35.352;149.036;2023-09-19T12:06:31;24.40;36.60
39695;DHT22;25367;-35.352;149.036;2023-09-19T12:09:01;24.40;36.50
39695;DHT22;25367;-35.352;149.036;2023-09-19T12:11:42;24.40;36.50
39695;DHT22;25367;-35.352;149.036;2023-09-19T12:14:24;24.40;37.10
39695;DHT22;25367;-35.352;149.036;2023-09-19T12:16:57;24.40;37.00
39695;DHT22;25367;-35.352;149.036;2023-09-19T12:19:28;24.30;36.50
39695;DHT22;25367;-35.352;149.036;2023-09-19T12:22:01;24.30;36.50
39695;DHT22;25367;-35.352;149.036;2023-09-19T12:24:32;24.40;36.90
39695;DHT22;25367;-35.352;149.036;2023-09-19T12:27:07;24.30;36.90
39695;DHT22;25367;-35.352;149.036;2023-09-19T12:29:46;24.30;37.20
39695;DHT22;25367;-35.352;149.036;2023-09-19T12:32:17;24.40;37.60
39695;DHT22;25367;-35.352;149.036;2023-09-19T12:34:52;24.30;37.30
39695;DHT22;25367;-35.352;149.036;2023-09-19T12:37:22;24.30;37.60
39695;DHT22;25367;-35.352;149.036;2023-09-19T12:39:54;24.40;37.50
39695;DHT22;25367;-35.352;149.036;2023-09-19T12:42:36;24.40;37.50
39695;DHT22;25367;-35.352;149.036;2023-09-19T12:45:08;24.30;37.90
39695;DHT22;25367;-35.352;149.036;2023-09-19T12:47:38;24.40;37.80
39695;DHT22;25367;-35.352;149.036;2023-09-19T12:50:11;24.40;37.90
39695;DHT22;25367;-35.352;149.036;2023-09-19T12:52:42;24.40;37.90
39695;DHT22;25367;-35.352;149.036;2023-09-19T12:55:21;24.40;37.90
39695;DHT22;25367;-35.352;149.036;2023-09-19T12:58:02;24.40;38.40
39695;DHT22;25367;-35.352;149.036;2023-09-19T13:00:35;24.40;38.40
39695;DHT22;25367;-35.352;149.036;2023-09-19T13:03:14;24.40;38.20
39695;DHT22;25367;-35.352;149.036;2023-09-19T13:05:53;24.40;38.50
39695;DHT22;25367;-35.352;149.036;2023-09-19T13:08:25;24.40;38.60
39695;DHT22;25367;-35.352;149.036;2023-09-19T13:11:14;24.30;38.40
39695;DHT22;25367;-35.352;149.036;2023-09-19T13:13:47;24.40;38.80
39695;DHT22;25367;-35.352;149.036;2023-09-19T13:16:17;24.30;38.70
39695;DHT22;25367;-35.352;149.036;2023-09-19T13:18:48;24.40;38.70
39695;DHT22;25367;-35.352;149.036;2023-09-19T13:21:27;24.40;38.80
39695;DHT22;25367;-35.352;149.036;2023-09-19T13:26:46;24.40;39.00
39695;DHT22;25367;-35.352;149.036;2023-09-19T13:29:17;24.40;39.00
39695;DHT22;25367;-35.352;149.036;2023-09-19T13:31:51;24.40;39.10
39695;DHT22;25367;-35.352;149.036;2023-09-19T13:34:20;24.40;39.20
39695;DHT22;25367;-35.352;149.036;2023-09-19T13:36:50;24.40;39.20
39695;DHT22;25367;-35.352;149.036;2023-09-19T13:39:19;24.40;39.30
39695;DHT22;25367;-35.352;149.036;2023-09-19T13:41:49;24.40;39.30
39695;DHT22;25367;-35.352;149.036;2023-09-19T13:44:20;24.40;39.40
39695;DHT22;25367;-35.352;149.036;2023-09-19T13:46:50;24.40;39.40
39695;DHT22;25367;-35.352;149.036;2023-09-19T13:49:19;24.40;39.50
39695;DHT22;25367;-35.352;149.036;2023-09-19T13:51:48;24.40;39.50
39695;DHT22;25367;-35.352;149.036;2023-09-19T13:54:18;24.40;39.50
39695;DHT22;25367;-35.352;149.036;2023-09-19T13:56:47;24.40;39.60
39695;DHT22;25367;-35.352;149.036;2023-09-19T13:59:19;24.40;39.70
39695;DHT22;25367;-35.352;149.036;2023-09-19T14:01:48;24.40;39.70
39695;DHT22;25367;-35.352;149.036;2023-09-19T14:04:18;24.40;39.80
39695;DHT22;25367;-35.352;149.036;2023-09-19T14:06:47;24.40;39.70
39695;DHT22;25367;-35.352;149.036;2023-09-19T14:09:16;24.40;39.80
39695;DHT22;25367;-35.352;149.036;2023-09-19T14:11:46;24.40;39.80
39695;DHT22;25367;-35.352;149.036;2023-09-19T14:14:15;24.30;39.80
39695;DHT22;25367;-35.352;149.036;2023-09-19T14:16:47;24.40;39.90
39695;DHT22;25367;-35.352;149.036;2023-09-19T14:19:17;24.40;40.00
39695;DHT22;25367;-35.352;149.036;2023-09-19T14:21:46;24.30;40.00
39695;DHT22;25367;-35.352;149.036;2023-09-19T14:24:18;24.30;40.00
39695;DHT22;25367;-35.352;149.036;2023-09-19T14:26:47;24.40;40.20
39695;DHT22;25367;-35.352;149.036;2023-09-19T14:29:17;24.30;40.20
39695;DHT22;25367;-35.352;149.036;2023-09-19T14:31:49;24.30;40.20
39695;DHT22;25367;-35.352;149.036;2023-09-19T14:34:18;24.30;40.30
39695;DHT22;25367;-35.352;149.036;2023-09-19T14:36:48;24.30;40.30
39695;DHT22;25367;-35.352;149.036;2023-09-19T14:39:17;24.30;40.30
39695;DHT22;25367;-35.352;149.036;2023-09-19T14:41:46;24.30;40.40
39695;DHT22;25367;-35.352;149.036;2023-09-19T14:44:16;24.30;40.40
39695;DHT22;25367;-35.352;149.036;2023-09-19T14:46:47;24.30;40.50
39695;DHT22;25367;-35.352;149.036;2023-09-19T14:49:17;24.30;40.50
39695;DHT22;25367;-35.352;149.036;2023-09-19T14:51:46;24.30;40.60
39695;DHT22;25367;-35.352;149.036;2023-09-19T14:54:16;24.30;40.60
39695;DHT22;25367;-35.352;149.036;2023-09-19T14:56:45;24.30;40.60
39695;DHT22;25367;-35.352;149.036;2023-09-19T14:59:14;24.30;40.60
39695;DHT22;25367;-35.352;149.036;2023-09-19T15:01:44;24.30;40.70
39695;DHT22;25367;-35.352;149.036;2023-09-19T15:04:15;24.30;40.70
39695;DHT22;25367;-35.352;149.036;2023-09-19T15:06:45;24.30;40.70
39695;DHT22;25367;-35.352;149.036;2023-09-19T15:09:14;24.30;40.80
39695;DHT22;25367;-35.352;149.036;2023-09-19T15:11:43;24.30;40.80
39695;DHT22;25367;-35.352;149.036;2023-09-19T15:14:13;24.20;40.80
39695;DHT22;25367;-35.352;149.036;2023-09-19T15:16:42;24.30;40.80
39695;DHT22;25367;-35.352;149.036;2023-09-19T15:19:14;24.30;40.80
39695;DHT22;25367;-35.352;149.036;2023-09-19T15:21:43;24.20;40.80